Page Municipal Airport
KPGA : rendu visible

Aérodrome :











RETROUVEZ-NOUS SUR...

 
LOGIN :

S'inscrire | Disclaimer

   EN    FR    IT 

 









Légende :    VFR   VFR Marginal   IFR   IFR Intensif   IFR Très Intensif
Visi : 
Plafond : 
>= 8 km
>= 3000ft
5 à 8 km
1000 à 3000 ft
1500m à 5 km
500 à 1000 ft
800 à 1500m
200 à 500 ft
< 800m
< 200 ft
Symboles :   Orages  Brouillard  Fortes neiges  Fortes précipitations  Vent > 20 kt






- Altitude de l'aérodrome : 4316 ft


KPGA - Page Municipal

DERNIER METAR :
  • 190453Z AUTO 20007KT 10SM CLR 27/M06 A3003 RMK AO2 SLP102 T02721056 TSNO

METARs EXPIRÉS :
  • 190353Z AUTO 21006KT 10SM CLR 27/M05 A3004 RMK AO2 SLP105 T02721050 TSNO
  • 190253Z AUTO 23004KT 10SM CLR 27/M03 A3003 RMK AO2 SLP108 T02721028 55000 TSNO

TAF KPGA
Valide du 19 à 06h jusqu'au 20 à 06h UTC


190520Z 1906/2006 21007KT P6SM SCT130
FM191700 19008G14KT P6SM FEW130
FM200300 23007KT P6SM SCT100
FIR KZDV / Amérique du Nord



MET'MAP, la Météo Aéronautique d'un coup d'oeil ! - Copyright ORBIFLY Décembre 2007 - Disclaimer

ORBIFLY MET'MAP TEAM :

Programmation & Développement : Alexandra Zaïnal
Sur une idée originale de : Baudouin d'Aumeries
Assistance à la programmation : Marc-Olivier Méhu
Soutien technique & logistique : Manuel Goepfert

Contact : metmap@orbifly.com




SOURCES & CREDITS :

   NOAA       Earth
Advisory